Terminal Aerodrome Forecast
Issued by NWS Wilmington, OH

Current Version | Previous Version | Text Only | Print | Product List | Glossary Off
Versions: 1 2 3 4 5 6 7 8 9 10 11 12 13 14 15 16 17 18 19 20 21 22 23 24 25 26

000
FTUS41 KILN 311100
TAFILN
TAF
KILN 311120Z 3112/0112 18006KT P6SM VCSH SCT050 BKN100
     FM311600 21012KT P6SM BKN025 OVC035
     FM312100 27012KT P6SM OVC025
     FM010100 33010KT P6SM OVC015
     FM010400 35008KT 5SM BR OVC007=

USA.gov is the U.S. government's official web portal to all federal, state and local government web resources and services.